METAR Data
IDs: Format: Raw Decoded Include TAF

Data at: 0147 UTC 10 Dec 2022

METAR for:KMNN (Marion Muni, OH, US)
Text:KMNN 100053Z AUTO 04010KT 4SM BR OVC034 03/02 A3016 RMK AO2 RAE03B20E44 SLP226 P0000 T00330017
Temperature: 3.3°C ( 38°F)
Dewpoint: 1.7°C ( 35°F) [RH = 89%]
Pressure (altimeter):30.16 inches Hg (1021.4 mb) [Sea level pressure: 1022.6 mb]
Winds:from the NE (40 degrees) at 12 MPH (10 knots; 5.1 m/s)
Visibility: 4 sm ( 6 km)
Ceiling:3400 feet AGL
Clouds: overcast cloud deck at 3400 feet AGL
Weather:BR (mist)
QC Flag:automated observation with no human augmentation